sensor_id;sensor_type;location;lat;lon;timestamp;P1;durP1;ratioP1;P2;durP2;ratioP2
20454;SDS011;10386;54.314;10.022;2024-01-16T00:01:41;8.63;;;4.40;;
20454;SDS011;10386;54.314;10.022;2024-01-16T00:04:09;9.10;;;4.30;;
20454;SDS011;10386;54.314;10.022;2024-01-16T00:06:40;12.97;;;4.83;;
20454;SDS011;10386;54.314;10.022;2024-01-16T00:09:12;10.43;;;5.43;;
20454;SDS011;10386;54.314;10.022;2024-01-16T00:11:39;16.17;;;5.47;;
20454;SDS011;10386;54.314;10.022;2024-01-16T00:14:08;9.27;;;4.90;;
20454;SDS011;10386;54.314;10.022;2024-01-16T00:16:45;8.80;;;4.60;;
20454;SDS011;10386;54.314;10.022;2024-01-16T00:19:13;11.87;;;5.63;;
20454;SDS011;10386;54.314;10.022;2024-01-16T00:21:43;12.93;;;5.70;;
20454;SDS011;10386;54.314;10.022;2024-01-16T00:24:14;9.53;;;4.73;;
20454;SDS011;10386;54.314;10.022;2024-01-16T00:26:41;11.17;;;5.10;;
20454;SDS011;10386;54.314;10.022;2024-01-16T00:29:08;10.40;;;5.57;;
20454;SDS011;10386;54.314;10.022;2024-01-16T00:31:39;11.57;;;5.27;;
20454;SDS011;10386;54.314;10.022;2024-01-16T00:34:06;12.57;;;5.37;;
20454;SDS011;10386;54.314;10.022;2024-01-16T00:36:33;13.00;;;4.70;;
20454;SDS011;10386;54.314;10.022;2024-01-16T00:39:00;13.90;;;6.17;;
20454;SDS011;10386;54.314;10.022;2024-01-16T00:41:26;10.77;;;5.60;;
20454;SDS011;10386;54.314;10.022;2024-01-16T00:43:53;10.73;;;4.70;;
20454;SDS011;10386;54.314;10.022;2024-01-16T00:46:21;10.63;;;4.90;;
20454;SDS011;10386;54.314;10.022;2024-01-16T00:48:48;8.27;;;5.13;;
20454;SDS011;10386;54.314;10.022;2024-01-16T00:51:15;11.70;;;5.53;;
20454;SDS011;10386;54.314;10.022;2024-01-16T00:53:42;14.33;;;5.43;;
20454;SDS011;10386;54.314;10.022;2024-01-16T00:56:10;10.63;;;5.53;;
20454;SDS011;10386;54.314;10.022;2024-01-16T00:58:38;8.80;;;5.53;;
20454;SDS011;10386;54.314;10.022;2024-01-16T01:01:05;13.33;;;5.20;;
20454;SDS011;10386;54.314;10.022;2024-01-16T01:03:32;11.80;;;5.83;;
20454;SDS011;10386;54.314;10.022;2024-01-16T01:05:59;12.30;;;5.93;;
20454;SDS011;10386;54.314;10.022;2024-01-16T01:08:27;11.33;;;5.67;;
20454;SDS011;10386;54.314;10.022;2024-01-16T01:10:54;14.97;;;5.50;;
20454;SDS011;10386;54.314;10.022;2024-01-16T01:13:21;13.17;;;6.50;;
20454;SDS011;10386;54.314;10.022;2024-01-16T01:15:48;9.60;;;5.33;;
20454;SDS011;10386;54.314;10.022;2024-01-16T01:18:15;10.00;;;5.70;;
20454;SDS011;10386;54.314;10.022;2024-01-16T01:20:42;12.00;;;5.93;;
20454;SDS011;10386;54.314;10.022;2024-01-16T01:23:09;10.20;;;5.50;;
20454;SDS011;10386;54.314;10.022;2024-01-16T01:25:36;11.90;;;5.43;;
20454;SDS011;10386;54.314;10.022;2024-01-16T01:28:03;14.93;;;5.90;;
20454;SDS011;10386;54.314;10.022;2024-01-16T01:30:31;11.60;;;5.77;;
20454;SDS011;10386;54.314;10.022;2024-01-16T01:32:58;18.67;;;5.80;;
20454;SDS011;10386;54.314;10.022;2024-01-16T01:35:25;20.90;;;6.43;;
20454;SDS011;10386;54.314;10.022;2024-01-16T01:37:52;11.77;;;5.57;;
20454;SDS011;10386;54.314;10.022;2024-01-16T01:40:19;14.03;;;6.07;;
20454;SDS011;10386;54.314;10.022;2024-01-16T01:42:46;15.70;;;6.17;;
20454;SDS011;10386;54.314;10.022;2024-01-16T01:45:13;18.60;;;7.07;;
20454;SDS011;10386;54.314;10.022;2024-01-16T01:47:40;14.33;;;6.70;;
20454;SDS011;10386;54.314;10.022;2024-01-16T01:50:11;15.60;;;6.63;;
20454;SDS011;10386;54.314;10.022;2024-01-16T01:52:39;16.93;;;6.57;;
20454;SDS011;10386;54.314;10.022;2024-01-16T01:55:10;11.27;;;6.37;;
20454;SDS011;10386;54.314;10.022;2024-01-16T01:57:40;13.50;;;6.33;;
20454;SDS011;10386;54.314;10.022;2024-01-16T02:00:10;15.63;;;5.47;;
20454;SDS011;10386;54.314;10.022;2024-01-16T02:02:37;13.00;;;6.40;;
20454;SDS011;10386;54.314;10.022;2024-01-16T02:05:06;13.37;;;6.87;;
20454;SDS011;10386;54.314;10.022;2024-01-16T02:07:34;15.43;;;7.07;;
20454;SDS011;10386;54.314;10.022;2024-01-16T02:10:01;12.17;;;6.13;;
20454;SDS011;10386;54.314;10.022;2024-01-16T02:12:28;15.43;;;6.47;;
20454;SDS011;10386;54.314;10.022;2024-01-16T02:14:55;14.53;;;6.90;;
20454;SDS011;10386;54.314;10.022;2024-01-16T02:17:22;11.77;;;6.27;;
20454;SDS011;10386;54.314;10.022;2024-01-16T02:19:48;15.87;;;7.30;;
20454;SDS011;10386;54.314;10.022;2024-01-16T02:22:16;17.00;;;6.90;;
20454;SDS011;10386;54.314;10.022;2024-01-16T02:24:48;14.90;;;6.60;;
20454;SDS011;10386;54.314;10.022;2024-01-16T02:27:15;19.10;;;7.10;;
20454;SDS011;10386;54.314;10.022;2024-01-16T02:29:42;13.33;;;6.17;;
20454;SDS011;10386;54.314;10.022;2024-01-16T02:32:13;15.00;;;6.80;;
20454;SDS011;10386;54.314;10.022;2024-01-16T02:34:40;14.93;;;6.73;;
20454;SDS011;10386;54.314;10.022;2024-01-16T02:37:08;12.87;;;6.30;;
20454;SDS011;10386;54.314;10.022;2024-01-16T02:39:35;14.47;;;5.97;;
20454;SDS011;10386;54.314;10.022;2024-01-16T02:42:02;11.73;;;5.70;;
20454;SDS011;10386;54.314;10.022;2024-01-16T02:44:29;14.07;;;5.60;;
20454;SDS011;10386;54.314;10.022;2024-01-16T02:46:56;15.30;;;6.57;;
20454;SDS011;10386;54.314;10.022;2024-01-16T02:49:23;10.77;;;6.00;;
20454;SDS011;10386;54.314;10.022;2024-01-16T02:51:52;17.33;;;6.77;;
20454;SDS011;10386;54.314;10.022;2024-01-16T02:54:19;12.93;;;6.10;;
20454;SDS011;10386;54.314;10.022;2024-01-16T02:56:46;11.23;;;5.90;;
20454;SDS011;10386;54.314;10.022;2024-01-16T02:59:13;11.83;;;5.47;;
20454;SDS011;10386;54.314;10.022;2024-01-16T03:01:40;12.63;;;6.07;;
20454;SDS011;10386;54.314;10.022;2024-01-16T03:04:07;12.53;;;5.83;;
20454;SDS011;10386;54.314;10.022;2024-01-16T03:06:33;13.70;;;5.63;;
20454;SDS011;10386;54.314;10.022;2024-01-16T03:09:01;9.10;;;5.10;;
20454;SDS011;10386;54.314;10.022;2024-01-16T03:11:27;11.60;;;6.30;;
20454;SDS011;10386;54.314;10.022;2024-01-16T03:13:57;12.83;;;5.93;;
20454;SDS011;10386;54.314;10.022;2024-01-16T03:16:24;12.63;;;6.03;;
20454;SDS011;10386;54.314;10.022;2024-01-16T03:18:51;13.63;;;5.77;;
20454;SDS011;10386;54.314;10.022;2024-01-16T03:21:18;12.50;;;5.70;;
20454;SDS011;10386;54.314;10.022;2024-01-16T03:23:45;13.23;;;5.83;;
20454;SDS011;10386;54.314;10.022;2024-01-16T03:26:13;12.17;;;5.67;;
20454;SDS011;10386;54.314;10.022;2024-01-16T03:28:40;11.20;;;5.40;;
20454;SDS011;10386;54.314;10.022;2024-01-16T03:31:07;13.27;;;5.43;;
20454;SDS011;10386;54.314;10.022;2024-01-16T03:33:34;10.33;;;4.67;;
20454;SDS011;10386;54.314;10.022;2024-01-16T03:36:02;13.00;;;5.30;;
20454;SDS011;10386;54.314;10.022;2024-01-16T03:38:30;9.40;;;5.50;;
20454;SDS011;10386;54.314;10.022;2024-01-16T03:40:57;13.60;;;5.73;;
20454;SDS011;10386;54.314;10.022;2024-01-16T03:43:24;11.57;;;5.27;;
20454;SDS011;10386;54.314;10.022;2024-01-16T03:45:50;10.20;;;4.93;;
20454;SDS011;10386;54.314;10.022;2024-01-16T03:48:17;11.13;;;5.47;;
20454;SDS011;10386;54.314;10.022;2024-01-16T03:50:44;9.27;;;4.90;;
20454;SDS011;10386;54.314;10.022;2024-01-16T03:53:12;12.33;;;4.83;;
20454;SDS011;10386;54.314;10.022;2024-01-16T03:55:39;8.90;;;4.80;;
20454;SDS011;10386;54.314;10.022;2024-01-16T03:58:06;11.40;;;5.30;;
20454;SDS011;10386;54.314;10.022;2024-01-16T04:00:38;10.17;;;5.47;;
20454;SDS011;10386;54.314;10.022;2024-01-16T04:03:05;11.93;;;4.77;;
20454;SDS011;10386;54.314;10.022;2024-01-16T04:05:33;9.97;;;5.80;;
20454;SDS011;10386;54.314;10.022;2024-01-16T04:08:01;10.00;;;5.40;;
20454;SDS011;10386;54.314;10.022;2024-01-16T04:10:29;14.33;;;5.43;;
20454;SDS011;10386;54.314;10.022;2024-01-16T04:12:59;13.20;;;5.43;;
20454;SDS011;10386;54.314;10.022;2024-01-16T04:15:27;15.10;;;4.97;;
20454;SDS011;10386;54.314;10.022;2024-01-16T04:17:54;9.27;;;4.80;;
20454;SDS011;10386;54.314;10.022;2024-01-16T04:20:21;10.80;;;4.97;;
20454;SDS011;10386;54.314;10.022;2024-01-16T04:22:48;17.40;;;5.40;;
20454;SDS011;10386;54.314;10.022;2024-01-16T04:25:15;15.23;;;5.67;;
20454;SDS011;10386;54.314;10.022;2024-01-16T04:27:42;11.63;;;5.40;;
20454;SDS011;10386;54.314;10.022;2024-01-16T04:30:09;11.57;;;5.50;;
20454;SDS011;10386;54.314;10.022;2024-01-16T04:32:36;11.50;;;5.20;;
20454;SDS011;10386;54.314;10.022;2024-01-16T04:35:03;9.50;;;5.63;;
20454;SDS011;10386;54.314;10.022;2024-01-16T04:37:30;14.60;;;5.33;;
20454;SDS011;10386;54.314;10.022;2024-01-16T04:39:57;13.00;;;5.20;;
20454;SDS011;10386;54.314;10.022;2024-01-16T04:42:25;13.93;;;6.20;;
20454;SDS011;10386;54.314;10.022;2024-01-16T04:44:52;14.37;;;5.90;;
20454;SDS011;10386;54.314;10.022;2024-01-16T04:47:19;10.57;;;5.30;;
20454;SDS011;10386;54.314;10.022;2024-01-16T04:49:46;7.73;;;5.27;;
20454;SDS011;10386;54.314;10.022;2024-01-16T04:52:13;17.40;;;5.53;;
20454;SDS011;10386;54.314;10.022;2024-01-16T04:54:40;12.43;;;5.67;;
20454;SDS011;10386;54.314;10.022;2024-01-16T04:57:07;14.63;;;6.30;;
20454;SDS011;10386;54.314;10.022;2024-01-16T04:59:34;13.43;;;6.17;;
20454;SDS011;10386;54.314;10.022;2024-01-16T05:02:00;11.73;;;5.80;;
20454;SDS011;10386;54.314;10.022;2024-01-16T05:04:27;17.47;;;6.33;;
20454;SDS011;10386;54.314;10.022;2024-01-16T05:06:54;16.50;;;6.00;;
20454;SDS011;10386;54.314;10.022;2024-01-16T05:09:21;9.60;;;5.57;;
20454;SDS011;10386;54.314;10.022;2024-01-16T05:11:48;13.83;;;6.97;;
20454;SDS011;10386;54.314;10.022;2024-01-16T05:14:16;16.07;;;6.67;;
20454;SDS011;10386;54.314;10.022;2024-01-16T05:16:43;14.43;;;6.27;;
20454;SDS011;10386;54.314;10.022;2024-01-16T05:19:09;16.43;;;6.23;;
20454;SDS011;10386;54.314;10.022;2024-01-16T05:21:36;13.50;;;5.77;;
20454;SDS011;10386;54.314;10.022;2024-01-16T05:24:03;19.57;;;6.80;;
20454;SDS011;10386;54.314;10.022;2024-01-16T05:26:31;16.10;;;7.30;;
20454;SDS011;10386;54.314;10.022;2024-01-16T05:28:58;16.87;;;6.90;;
20454;SDS011;10386;54.314;10.022;2024-01-16T05:31:25;16.83;;;7.20;;
20454;SDS011;10386;54.314;10.022;2024-01-16T05:33:51;20.57;;;7.60;;
20454;SDS011;10386;54.314;10.022;2024-01-16T05:36:19;19.87;;;8.50;;
20454;SDS011;10386;54.314;10.022;2024-01-16T05:38:47;18.37;;;7.27;;
20454;SDS011;10386;54.314;10.022;2024-01-16T05:41:14;17.03;;;7.67;;
20454;SDS011;10386;54.314;10.022;2024-01-16T05:43:41;22.50;;;8.07;;
20454;SDS011;10386;54.314;10.022;2024-01-16T05:46:09;22.90;;;9.03;;
20454;SDS011;10386;54.314;10.022;2024-01-16T05:48:36;23.13;;;9.00;;
20454;SDS011;10386;54.314;10.022;2024-01-16T05:51:04;16.57;;;6.80;;
20454;SDS011;10386;54.314;10.022;2024-01-16T05:53:31;20.57;;;7.90;;
20454;SDS011;10386;54.314;10.022;2024-01-16T05:55:58;19.10;;;8.23;;
20454;SDS011;10386;54.314;10.022;2024-01-16T05:58:25;23.93;;;8.77;;
20454;SDS011;10386;54.314;10.022;2024-01-16T06:00:52;26.03;;;9.53;;
20454;SDS011;10386;54.314;10.022;2024-01-16T06:03:20;23.80;;;8.23;;
20454;SDS011;10386;54.314;10.022;2024-01-16T06:05:47;20.50;;;9.27;;
20454;SDS011;10386;54.314;10.022;2024-01-16T06:08:14;19.97;;;7.97;;
20454;SDS011;10386;54.314;10.022;2024-01-16T06:10:41;26.57;;;8.73;;
20454;SDS011;10386;54.314;10.022;2024-01-16T06:13:07;23.17;;;8.03;;
20454;SDS011;10386;54.314;10.022;2024-01-16T06:15:34;20.57;;;7.47;;
20454;SDS011;10386;54.314;10.022;2024-01-16T06:18:01;24.90;;;8.23;;
20454;SDS011;10386;54.314;10.022;2024-01-16T06:20:28;22.60;;;8.27;;
20454;SDS011;10386;54.314;10.022;2024-01-16T06:22:57;25.23;;;9.50;;
20454;SDS011;10386;54.314;10.022;2024-01-16T06:25:23;26.83;;;9.03;;
20454;SDS011;10386;54.314;10.022;2024-01-16T06:27:51;26.37;;;9.77;;
20454;SDS011;10386;54.314;10.022;2024-01-16T06:30:19;27.10;;;8.67;;
20454;SDS011;10386;54.314;10.022;2024-01-16T06:32:46;24.77;;;9.10;;
20454;SDS011;10386;54.314;10.022;2024-01-16T06:35:15;23.97;;;9.53;;
20454;SDS011;10386;54.314;10.022;2024-01-16T06:37:43;23.00;;;10.07;;
20454;SDS011;10386;54.314;10.022;2024-01-16T06:40:10;29.50;;;9.80;;
20454;SDS011;10386;54.314;10.022;2024-01-16T06:42:37;23.17;;;9.87;;
20454;SDS011;10386;54.314;10.022;2024-01-16T06:45:04;30.37;;;10.40;;
20454;SDS011;10386;54.314;10.022;2024-01-16T06:47:31;28.77;;;10.50;;
20454;SDS011;10386;54.314;10.022;2024-01-16T06:49:59;27.10;;;10.33;;
20454;SDS011;10386;54.314;10.022;2024-01-16T06:52:26;26.17;;;10.03;;
20454;SDS011;10386;54.314;10.022;2024-01-16T06:54:52;28.77;;;10.57;;
20454;SDS011;10386;54.314;10.022;2024-01-16T06:57:19;39.57;;;13.50;;
20454;SDS011;10386;54.314;10.022;2024-01-16T06:59:46;44.93;;;15.10;;
20454;SDS011;10386;54.314;10.022;2024-01-16T07:02:13;39.73;;;13.13;;
20454;SDS011;10386;54.314;10.022;2024-01-16T07:04:40;47.00;;;16.50;;
20454;SDS011;10386;54.314;10.022;2024-01-16T07:07:07;36.33;;;12.47;;
20454;SDS011;10386;54.314;10.022;2024-01-16T07:09:34;27.50;;;10.27;;
20454;SDS011;10386;54.314;10.022;2024-01-16T07:12:01;29.87;;;10.97;;
20454;SDS011;10386;54.314;10.022;2024-01-16T07:14:28;28.70;;;11.93;;
20454;SDS011;10386;54.314;10.022;2024-01-16T07:16:54;23.80;;;10.73;;
20454;SDS011;10386;54.314;10.022;2024-01-16T07:19:21;32.53;;;12.77;;
20454;SDS011;10386;54.314;10.022;2024-01-16T07:21:48;66.90;;;21.73;;
20454;SDS011;10386;54.314;10.022;2024-01-16T07:24:15;36.80;;;12.87;;
20454;SDS011;10386;54.314;10.022;2024-01-16T07:26:42;32.57;;;12.03;;
20454;SDS011;10386;54.314;10.022;2024-01-16T07:29:09;27.67;;;10.73;;
20454;SDS011;10386;54.314;10.022;2024-01-16T07:31:36;25.87;;;9.50;;
20454;SDS011;10386;54.314;10.022;2024-01-16T07:34:03;64.53;;;19.37;;
20454;SDS011;10386;54.314;10.022;2024-01-16T07:36:30;36.17;;;12.30;;
20454;SDS011;10386;54.314;10.022;2024-01-16T07:38:57;31.10;;;11.57;;
20454;SDS011;10386;54.314;10.022;2024-01-16T07:41:24;34.83;;;11.70;;
20454;SDS011;10386;54.314;10.022;2024-01-16T07:43:51;39.50;;;17.40;;
20454;SDS011;10386;54.314;10.022;2024-01-16T07:46:17;33.37;;;11.10;;
20454;SDS011;10386;54.314;10.022;2024-01-16T07:48:44;25.07;;;8.53;;
20454;SDS011;10386;54.314;10.022;2024-01-16T07:51:12;24.70;;;9.93;;
20454;SDS011;10386;54.314;10.022;2024-01-16T07:53:39;22.03;;;9.70;;
20454;SDS011;10386;54.314;10.022;2024-01-16T07:56:06;24.53;;;9.50;;
20454;SDS011;10386;54.314;10.022;2024-01-16T07:58:33;23.83;;;8.60;;
20454;SDS011;10386;54.314;10.022;2024-01-16T08:01:00;23.97;;;9.83;;
20454;SDS011;10386;54.314;10.022;2024-01-16T08:03:27;25.47;;;10.17;;
20454;SDS011;10386;54.314;10.022;2024-01-16T08:05:54;26.17;;;10.27;;
20454;SDS011;10386;54.314;10.022;2024-01-16T08:08:22;28.90;;;9.93;;
20454;SDS011;10386;54.314;10.022;2024-01-16T08:10:49;25.93;;;9.33;;
20454;SDS011;10386;54.314;10.022;2024-01-16T08:13:16;28.10;;;10.77;;
20454;SDS011;10386;54.314;10.022;2024-01-16T08:15:43;22.60;;;9.63;;
20454;SDS011;10386;54.314;10.022;2024-01-16T08:18:10;25.43;;;9.93;;
20454;SDS011;10386;54.314;10.022;2024-01-16T08:20:37;26.77;;;9.43;;
20454;SDS011;10386;54.314;10.022;2024-01-16T08:23:03;26.03;;;9.97;;
20454;SDS011;10386;54.314;10.022;2024-01-16T08:25:30;25.33;;;11.60;;
20454;SDS011;10386;54.314;10.022;2024-01-16T08:27:57;27.90;;;10.40;;
20454;SDS011;10386;54.314;10.022;2024-01-16T08:30:25;23.80;;;10.20;;
20454;SDS011;10386;54.314;10.022;2024-01-16T08:32:52;27.20;;;9.50;;
20454;SDS011;10386;54.314;10.022;2024-01-16T08:35:19;25.93;;;9.40;;
20454;SDS011;10386;54.314;10.022;2024-01-16T08:37:47;28.77;;;9.50;;
20454;SDS011;10386;54.314;10.022;2024-01-16T08:40:14;25.30;;;10.13;;
20454;SDS011;10386;54.314;10.022;2024-01-16T08:42:41;27.90;;;9.27;;
20454;SDS011;10386;54.314;10.022;2024-01-16T08:45:08;23.70;;;9.83;;
20454;SDS011;10386;54.314;10.022;2024-01-16T08:47:36;31.90;;;10.37;;
20454;SDS011;10386;54.314;10.022;2024-01-16T08:50:03;24.67;;;10.10;;
20454;SDS011;10386;54.314;10.022;2024-01-16T08:52:31;36.70;;;10.60;;
20454;SDS011;10386;54.314;10.022;2024-01-16T08:54:58;23.37;;;9.83;;
20454;SDS011;10386;54.314;10.022;2024-01-16T08:57:25;28.87;;;9.70;;
20454;SDS011;10386;54.314;10.022;2024-01-16T08:59:56;24.17;;;10.00;;
20454;SDS011;10386;54.314;10.022;2024-01-16T09:02:23;22.47;;;9.83;;
20454;SDS011;10386;54.314;10.022;2024-01-16T09:04:50;22.43;;;9.97;;
20454;SDS011;10386;54.314;10.022;2024-01-16T09:07:17;28.17;;;10.10;;
20454;SDS011;10386;54.314;10.022;2024-01-16T09:09:45;23.57;;;10.63;;
20454;SDS011;10386;54.314;10.022;2024-01-16T09:12:12;22.50;;;9.70;;
20454;SDS011;10386;54.314;10.022;2024-01-16T09:14:40;25.27;;;9.80;;
20454;SDS011;10386;54.314;10.022;2024-01-16T09:17:08;25.80;;;9.87;;
20454;SDS011;10386;54.314;10.022;2024-01-16T09:19:34;24.17;;;10.27;;
20454;SDS011;10386;54.314;10.022;2024-01-16T09:22:01;26.07;;;10.17;;
20454;SDS011;10386;54.314;10.022;2024-01-16T09:24:29;31.53;;;10.50;;
20454;SDS011;10386;54.314;10.022;2024-01-16T09:26:57;25.20;;;9.63;;
20454;SDS011;10386;54.314;10.022;2024-01-16T09:29:24;30.40;;;9.60;;
20454;SDS011;10386;54.314;10.022;2024-01-16T09:31:51;26.07;;;9.97;;
20454;SDS011;10386;54.314;10.022;2024-01-16T09:34:18;29.20;;;10.50;;
20454;SDS011;10386;54.314;10.022;2024-01-16T09:36:45;23.63;;;9.00;;
20454;SDS011;10386;54.314;10.022;2024-01-16T09:39:12;25.93;;;10.87;;
20454;SDS011;10386;54.314;10.022;2024-01-16T09:41:45;25.40;;;10.53;;
20454;SDS011;10386;54.314;10.022;2024-01-16T09:44:12;25.90;;;9.97;;
20454;SDS011;10386;54.314;10.022;2024-01-16T09:46:39;23.83;;;10.33;;
20454;SDS011;10386;54.314;10.022;2024-01-16T09:49:12;23.07;;;9.73;;
20454;SDS011;10386;54.314;10.022;2024-01-16T09:51:42;28.67;;;9.83;;
20454;SDS011;10386;54.314;10.022;2024-01-16T09:54:09;21.67;;;9.20;;
20454;SDS011;10386;54.314;10.022;2024-01-16T09:56:39;23.87;;;9.83;;
20454;SDS011;10386;54.314;10.022;2024-01-16T09:59:09;26.33;;;9.47;;
20454;SDS011;10386;54.314;10.022;2024-01-16T10:01:39;26.23;;;9.73;;
20454;SDS011;10386;54.314;10.022;2024-01-16T10:04:07;20.53;;;8.80;;
20454;SDS011;10386;54.314;10.022;2024-01-16T10:06:34;20.13;;;8.87;;
20454;SDS011;10386;54.314;10.022;2024-01-16T10:09:06;28.40;;;10.03;;
20454;SDS011;10386;54.314;10.022;2024-01-16T10:11:33;22.20;;;8.97;;
20454;SDS011;10386;54.314;10.022;2024-01-16T10:14:00;18.80;;;8.43;;
20454;SDS011;10386;54.314;10.022;2024-01-16T10:19:25;19.73;;;8.43;;
20454;SDS011;10386;54.314;10.022;2024-01-16T10:22:11;23.00;;;9.57;;
20454;SDS011;10386;54.314;10.022;2024-01-16T10:24:39;37.20;;;12.97;;
20454;SDS011;10386;54.314;10.022;2024-01-16T10:27:07;22.47;;;9.07;;
20454;SDS011;10386;54.314;10.022;2024-01-16T10:29:34;24.40;;;12.00;;
20454;SDS011;10386;54.314;10.022;2024-01-16T10:32:26;22.53;;;9.07;;
20454;SDS011;10386;54.314;10.022;2024-01-16T10:35:10;16.40;;;9.00;;
20454;SDS011;10386;54.314;10.022;2024-01-16T10:40:16;14.30;;;6.70;;
20454;SDS011;10386;54.314;10.022;2024-01-16T10:42:58;14.60;;;7.00;;
20454;SDS011;10386;54.314;10.022;2024-01-16T10:45:27;12.47;;;6.73;;
20454;SDS011;10386;54.314;10.022;2024-01-16T10:48:00;13.07;;;6.30;;
20454;SDS011;10386;54.314;10.022;2024-01-16T10:50:28;13.43;;;5.90;;
20454;SDS011;10386;54.314;10.022;2024-01-16T10:52:55;10.40;;;5.80;;
20454;SDS011;10386;54.314;10.022;2024-01-16T10:55:26;10.00;;;5.37;;
20454;SDS011;10386;54.314;10.022;2024-01-16T10:57:55;13.43;;;6.03;;
20454;SDS011;10386;54.314;10.022;2024-01-16T11:00:23;12.33;;;6.27;;
20454;SDS011;10386;54.314;10.022;2024-01-16T11:02:57;11.10;;;5.53;;
20454;SDS011;10386;54.314;10.022;2024-01-16T11:05:28;12.90;;;5.47;;
20454;SDS011;10386;54.314;10.022;2024-01-16T11:07:59;14.00;;;5.07;;
20454;SDS011;10386;54.314;10.022;2024-01-16T11:10:32;10.93;;;4.70;;
20454;SDS011;10386;54.314;10.022;2024-01-16T11:13:01;8.10;;;4.43;;
20454;SDS011;10386;54.314;10.022;2024-01-16T11:15:29;10.70;;;4.70;;
20454;SDS011;10386;54.314;10.022;2024-01-16T11:17:58;6.50;;;4.17;;
20454;SDS011;10386;54.314;10.022;2024-01-16T11:20:26;9.50;;;4.60;;
20454;SDS011;10386;54.314;10.022;2024-01-16T11:23:13;10.30;;;4.57;;
20454;SDS011;10386;54.314;10.022;2024-01-16T11:25:41;6.53;;;4.07;;
20454;SDS011;10386;54.314;10.022;2024-01-16T11:28:08;8.00;;;3.50;;
20454;SDS011;10386;54.314;10.022;2024-01-16T11:30:40;6.47;;;3.77;;
20454;SDS011;10386;54.314;10.022;2024-01-16T11:33:41;6.00;;;3.80;;
20454;SDS011;10386;54.314;10.022;2024-01-16T11:36:00;8.60;;;3.37;;
20454;SDS011;10386;54.314;10.022;2024-01-16T11:38:28;4.07;;;3.20;;
20454;SDS011;10386;54.314;10.022;2024-01-16T11:40:59;9.90;;;3.03;;
20454;SDS011;10386;54.314;10.022;2024-01-16T11:46:00;6.33;;;3.13;;
20454;SDS011;10386;54.314;10.022;2024-01-16T11:48:27;7.00;;;3.77;;
20454;SDS011;10386;54.314;10.022;2024-01-16T11:50:54;9.47;;;3.50;;
20454;SDS011;10386;54.314;10.022;2024-01-16T11:53:31;5.10;;;3.03;;
20454;SDS011;10386;54.314;10.022;2024-01-16T12:02:14;6.17;;;2.93;;
20454;SDS011;10386;54.314;10.022;2024-01-16T12:05:15;6.40;;;2.57;;
20454;SDS011;10386;54.314;10.022;2024-01-16T12:07:44;5.23;;;2.40;;
20454;SDS011;10386;54.314;10.022;2024-01-16T12:10:13;6.27;;;2.27;;
20454;SDS011;10386;54.314;10.022;2024-01-16T12:12:40;7.37;;;2.30;;
20454;SDS011;10386;54.314;10.022;2024-01-16T12:15:12;4.47;;;2.70;;
20454;SDS011;10386;54.314;10.022;2024-01-16T12:17:53;5.43;;;2.70;;
20454;SDS011;10386;54.314;10.022;2024-01-16T12:20:25;9.50;;;2.60;;
20454;SDS011;10386;54.314;10.022;2024-01-16T12:25:36;3.60;;;2.13;;
20454;SDS011;10386;54.314;10.022;2024-01-16T12:28:24;4.33;;;2.40;;
20454;SDS011;10386;54.314;10.022;2024-01-16T12:30:59;10.13;;;4.60;;
20454;SDS011;10386;54.314;10.022;2024-01-16T12:33:28;6.03;;;2.80;;
20454;SDS011;10386;54.314;10.022;2024-01-16T12:36:02;5.33;;;2.33;;
20454;SDS011;10386;54.314;10.022;2024-01-16T12:38:31;4.70;;;2.27;;
20454;SDS011;10386;54.314;10.022;2024-01-16T12:40:58;8.17;;;2.10;;
20454;SDS011;10386;54.314;10.022;2024-01-16T12:43:29;7.40;;;2.30;;
20454;SDS011;10386;54.314;10.022;2024-01-16T12:45:58;4.83;;;2.40;;
20454;SDS011;10386;54.314;10.022;2024-01-16T12:48:25;6.00;;;2.53;;
20454;SDS011;10386;54.314;10.022;2024-01-16T12:51:03;6.30;;;2.50;;
20454;SDS011;10386;54.314;10.022;2024-01-16T12:53:32;7.40;;;1.90;;
20454;SDS011;10386;54.314;10.022;2024-01-16T12:56:01;11.60;;;3.07;;
20454;SDS011;10386;54.314;10.022;2024-01-16T12:58:35;7.53;;;2.03;;
20454;SDS011;10386;54.314;10.022;2024-01-16T13:04:04;4.77;;;2.10;;
20454;SDS011;10386;54.314;10.022;2024-01-16T13:06:31;4.50;;;1.90;;
20454;SDS011;10386;54.314;10.022;2024-01-16T13:09:09;5.43;;;1.97;;
20454;SDS011;10386;54.314;10.022;2024-01-16T13:11:50;2.63;;;1.70;;
20454;SDS011;10386;54.314;10.022;2024-01-16T13:14:19;6.57;;;2.47;;
20454;SDS011;10386;54.314;10.022;2024-01-16T13:16:49;2.43;;;1.40;;
20454;SDS011;10386;54.314;10.022;2024-01-16T13:19:18;4.20;;;2.20;;
20454;SDS011;10386;54.314;10.022;2024-01-16T13:21:48;8.00;;;3.60;;
20454;SDS011;10386;54.314;10.022;2024-01-16T13:24:16;6.30;;;2.40;;
20454;SDS011;10386;54.314;10.022;2024-01-16T13:26:44;2.50;;;1.90;;
20454;SDS011;10386;54.314;10.022;2024-01-16T13:29:11;4.53;;;1.70;;
20454;SDS011;10386;54.314;10.022;2024-01-16T13:31:39;2.00;;;1.53;;
20454;SDS011;10386;54.314;10.022;2024-01-16T13:34:06;6.43;;;1.97;;
20454;SDS011;10386;54.314;10.022;2024-01-16T13:36:34;2.07;;;1.60;;
20454;SDS011;10386;54.314;10.022;2024-01-16T13:39:20;4.27;;;1.70;;
20454;SDS011;10386;54.314;10.022;2024-01-16T13:41:47;4.77;;;1.93;;
20454;SDS011;10386;54.314;10.022;2024-01-16T13:44:14;7.83;;;1.97;;
20454;SDS011;10386;54.314;10.022;2024-01-16T13:46:42;5.70;;;1.87;;
20454;SDS011;10386;54.314;10.022;2024-01-16T13:49:26;3.73;;;1.60;;
20454;SDS011;10386;54.314;10.022;2024-01-16T13:51:54;2.30;;;1.70;;
20454;SDS011;10386;54.314;10.022;2024-01-16T13:54:21;5.73;;;1.60;;
20454;SDS011;10386;54.314;10.022;2024-01-16T13:56:47;3.87;;;1.60;;
20454;SDS011;10386;54.314;10.022;2024-01-16T13:59:32;4.80;;;1.80;;
20454;SDS011;10386;54.314;10.022;2024-01-16T14:02:01;6.80;;;2.17;;
20454;SDS011;10386;54.314;10.022;2024-01-16T14:04:29;8.57;;;1.73;;
20454;SDS011;10386;54.314;10.022;2024-01-16T14:06:56;3.90;;;1.37;;
20454;SDS011;10386;54.314;10.022;2024-01-16T14:09:38;3.57;;;1.50;;
20454;SDS011;10386;54.314;10.022;2024-01-16T14:12:08;7.93;;;1.97;;
20454;SDS011;10386;54.314;10.022;2024-01-16T14:14:36;2.13;;;1.90;;
20454;SDS011;10386;54.314;10.022;2024-01-16T14:17:05;5.40;;;2.20;;
20454;SDS011;10386;54.314;10.022;2024-01-16T14:19:35;1.90;;;1.33;;
20454;SDS011;10386;54.314;10.022;2024-01-16T14:22:02;2.93;;;1.60;;
20454;SDS011;10386;54.314;10.022;2024-01-16T14:24:29;2.60;;;1.43;;
20454;SDS011;10386;54.314;10.022;2024-01-16T14:26:56;7.53;;;1.37;;
20454;SDS011;10386;54.314;10.022;2024-01-16T14:29:26;1.80;;;1.13;;
20454;SDS011;10386;54.314;10.022;2024-01-16T14:31:53;3.73;;;1.40;;
20454;SDS011;10386;54.314;10.022;2024-01-16T14:34:23;2.77;;;1.30;;
20454;SDS011;10386;54.314;10.022;2024-01-16T14:36:50;2.73;;;1.33;;
20454;SDS011;10386;54.314;10.022;2024-01-16T14:39:17;2.93;;;1.43;;
20454;SDS011;10386;54.314;10.022;2024-01-16T14:41:52;3.13;;;1.70;;
20454;SDS011;10386;54.314;10.022;2024-01-16T14:44:19;2.90;;;1.50;;
20454;SDS011;10386;54.314;10.022;2024-01-16T14:46:46;3.80;;;1.63;;
20454;SDS011;10386;54.314;10.022;2024-01-16T14:49:17;7.23;;;1.80;;
20454;SDS011;10386;54.314;10.022;2024-01-16T14:51:44;4.60;;;2.13;;